sensor_id;sensor_type;location;lat;lon;timestamp;temperature;humidity
1994;DHT22;998;49.906;10.908;2022-08-01T00:02:15;22.70;99.90
1994;DHT22;998;49.906;10.908;2022-08-01T00:04:43;22.60;99.90
1994;DHT22;998;49.906;10.908;2022-08-01T00:07:10;22.60;99.90
1994;DHT22;998;49.906;10.908;2022-08-01T00:09:37;22.40;99.90
1994;DHT22;998;49.906;10.908;2022-08-01T00:12:04;22.50;99.90
1994;DHT22;998;49.906;10.908;2022-08-01T00:14:31;22.50;99.90
1994;DHT22;998;49.906;10.908;2022-08-01T00:16:58;22.50;99.90
1994;DHT22;998;49.906;10.908;2022-08-01T00:19:25;22.40;99.90
1994;DHT22;998;49.906;10.908;2022-08-01T00:21:53;22.50;99.90
1994;DHT22;998;49.906;10.908;2022-08-01T00:24:20;22.50;99.90
1994;DHT22;998;49.906;10.908;2022-08-01T00:26:47;22.40;99.90
1994;DHT22;998;49.906;10.908;2022-08-01T00:29:13;22.30;99.90
1994;DHT22;998;49.906;10.908;2022-08-01T00:31:40;22.30;99.90
1994;DHT22;998;49.906;10.908;2022-08-01T00:34:07;22.30;99.90
1994;DHT22;998;49.906;10.908;2022-08-01T00:36:34;22.40;99.90
1994;DHT22;998;49.906;10.908;2022-08-01T00:39:02;22.50;99.90
1994;DHT22;998;49.906;10.908;2022-08-01T00:41:29;22.50;99.90
1994;DHT22;998;49.906;10.908;2022-08-01T00:43:56;22.50;99.90
1994;DHT22;998;49.906;10.908;2022-08-01T00:46:23;22.50;99.90
1994;DHT22;998;49.906;10.908;2022-08-01T00:48:50;22.40;99.90
1994;DHT22;998;49.906;10.908;2022-08-01T00:51:17;22.40;99.90
1994;DHT22;998;49.906;10.908;2022-08-01T00:53:44;22.30;99.90
1994;DHT22;998;49.906;10.908;2022-08-01T00:56:12;22.20;99.90
1994;DHT22;998;49.906;10.908;2022-08-01T00:58:40;22.20;99.90
1994;DHT22;998;49.906;10.908;2022-08-01T01:01:06;22.20;99.90
1994;DHT22;998;49.906;10.908;2022-08-01T01:03:33;22.10;99.90
1994;DHT22;998;49.906;10.908;2022-08-01T01:06:09;22.20;99.90
1994;DHT22;998;49.906;10.908;2022-08-01T01:08:43;22.10;99.90
1994;DHT22;998;49.906;10.908;2022-08-01T01:11:21;22.10;99.90
1994;DHT22;998;49.906;10.908;2022-08-01T01:13:57;22.10;99.90
1994;DHT22;998;49.906;10.908;2022-08-01T01:16:27;22.20;99.90
1994;DHT22;998;49.906;10.908;2022-08-01T01:18:57;22.10;99.90
1994;DHT22;998;49.906;10.908;2022-08-01T01:21:50;22.00;99.90
1994;DHT22;998;49.906;10.908;2022-08-01T01:24:28;22.00;99.90
1994;DHT22;998;49.906;10.908;2022-08-01T01:27:04;22.10;99.90
1994;DHT22;998;49.906;10.908;2022-08-01T01:29:40;22.10;99.90
1994;DHT22;998;49.906;10.908;2022-08-01T01:32:14;22.20;99.90
1994;DHT22;998;49.906;10.908;2022-08-01T01:34:44;22.30;99.90
1994;DHT22;998;49.906;10.908;2022-08-01T01:37:15;22.30;99.90
1994;DHT22;998;49.906;10.908;2022-08-01T01:39:42;22.20;99.90
1994;DHT22;998;49.906;10.908;2022-08-01T01:42:11;22.20;99.90
1994;DHT22;998;49.906;10.908;2022-08-01T01:44:40;22.20;99.90
1994;DHT22;998;49.906;10.908;2022-08-01T01:47:07;22.20;99.90
1994;DHT22;998;49.906;10.908;2022-08-01T01:49:35;22.10;99.90
1994;DHT22;998;49.906;10.908;2022-08-01T01:52:03;22.20;99.90
1994;DHT22;998;49.906;10.908;2022-08-01T01:54:33;22.10;99.90
1994;DHT22;998;49.906;10.908;2022-08-01T01:57:03;22.20;99.90
1994;DHT22;998;49.906;10.908;2022-08-01T01:59:34;22.10;99.90
1994;DHT22;998;49.906;10.908;2022-08-01T02:02:04;22.20;99.90
1994;DHT22;998;49.906;10.908;2022-08-01T02:04:32;22.10;99.90
1994;DHT22;998;49.906;10.908;2022-08-01T02:07:00;22.10;99.90
1994;DHT22;998;49.906;10.908;2022-08-01T02:09:28;22.00;99.90
1994;DHT22;998;49.906;10.908;2022-08-01T02:11:57;21.90;99.90
1994;DHT22;998;49.906;10.908;2022-08-01T02:14:25;21.90;99.90
1994;DHT22;998;49.906;10.908;2022-08-01T02:16:54;21.80;99.90
1994;DHT22;998;49.906;10.908;2022-08-01T02:19:24;21.80;99.90
1994;DHT22;998;49.906;10.908;2022-08-01T02:21:54;21.70;99.90
1994;DHT22;998;49.906;10.908;2022-08-01T02:24:28;21.70;99.90
1994;DHT22;998;49.906;10.908;2022-08-01T02:27:01;21.40;99.90
1994;DHT22;998;49.906;10.908;2022-08-01T02:29:36;21.40;99.90
1994;DHT22;998;49.906;10.908;2022-08-01T02:32:04;21.40;99.90
1994;DHT22;998;49.906;10.908;2022-08-01T02:34:35;21.40;99.90
1994;DHT22;998;49.906;10.908;2022-08-01T02:37:03;21.50;99.90
1994;DHT22;998;49.906;10.908;2022-08-01T02:39:32;21.50;99.90
1994;DHT22;998;49.906;10.908;2022-08-01T02:42:05;21.50;99.90
1994;DHT22;998;49.906;10.908;2022-08-01T02:44:37;21.60;99.90
1994;DHT22;998;49.906;10.908;2022-08-01T02:47:04;21.60;99.90
1994;DHT22;998;49.906;10.908;2022-08-01T02:49:35;21.60;99.90
1994;DHT22;998;49.906;10.908;2022-08-01T02:52:07;21.50;99.90
1994;DHT22;998;49.906;10.908;2022-08-01T02:54:36;21.60;99.90
1994;DHT22;998;49.906;10.908;2022-08-01T02:57:04;21.50;99.90
1994;DHT22;998;49.906;10.908;2022-08-01T02:59:34;21.60;99.90
1994;DHT22;998;49.906;10.908;2022-08-01T03:02:03;21.70;99.90
1994;DHT22;998;49.906;10.908;2022-08-01T03:04:33;21.50;99.90
1994;DHT22;998;49.906;10.908;2022-08-01T03:07:04;21.50;99.90
1994;DHT22;998;49.906;10.908;2022-08-01T03:09:35;21.40;99.90
1994;DHT22;998;49.906;10.908;2022-08-01T03:12:07;21.40;99.90
1994;DHT22;998;49.906;10.908;2022-08-01T03:14:39;21.30;99.90
1994;DHT22;998;49.906;10.908;2022-08-01T03:17:07;21.30;99.90
1994;DHT22;998;49.906;10.908;2022-08-01T03:19:35;21.30;99.90
1994;DHT22;998;49.906;10.908;2022-08-01T03:22:05;21.30;99.90
1994;DHT22;998;49.906;10.908;2022-08-01T03:24:33;21.40;99.90
1994;DHT22;998;49.906;10.908;2022-08-01T03:27:02;21.40;99.90
1994;DHT22;998;49.906;10.908;2022-08-01T03:29:30;21.40;99.90
1994;DHT22;998;49.906;10.908;2022-08-01T03:31:58;21.50;99.90
1994;DHT22;998;49.906;10.908;2022-08-01T03:34:26;21.40;99.90
1994;DHT22;998;49.906;10.908;2022-08-01T03:36:57;21.40;99.90
1994;DHT22;998;49.906;10.908;2022-08-01T03:39:29;21.40;99.90
1994;DHT22;998;49.906;10.908;2022-08-01T03:42:01;21.40;99.90
1994;DHT22;998;49.906;10.908;2022-08-01T03:44:32;21.30;99.90
1994;DHT22;998;49.906;10.908;2022-08-01T03:47:04;21.10;99.90
1994;DHT22;998;49.906;10.908;2022-08-01T03:49:32;21.10;99.90
1994;DHT22;998;49.906;10.908;2022-08-01T03:52:02;20.90;99.90
1994;DHT22;998;49.906;10.908;2022-08-01T03:54:34;20.90;99.90
1994;DHT22;998;49.906;10.908;2022-08-01T03:57:02;21.00;99.90
1994;DHT22;998;49.906;10.908;2022-08-01T03:59:30;20.90;99.90
1994;DHT22;998;49.906;10.908;2022-08-01T04:01:58;20.50;99.90
1994;DHT22;998;49.906;10.908;2022-08-01T04:04:25;20.40;99.90
1994;DHT22;998;49.906;10.908;2022-08-01T04:06:52;20.60;99.90
1994;DHT22;998;49.906;10.908;2022-08-01T04:09:20;20.60;99.90
1994;DHT22;998;49.906;10.908;2022-08-01T04:11:49;20.40;99.90
1994;DHT22;998;49.906;10.908;2022-08-01T04:14:16;20.20;99.90
1994;DHT22;998;49.906;10.908;2022-08-01T04:16:43;20.10;99.90
1994;DHT22;998;49.906;10.908;2022-08-01T04:19:10;20.30;99.90
1994;DHT22;998;49.906;10.908;2022-08-01T04:21:37;20.40;99.90
1994;DHT22;998;49.906;10.908;2022-08-01T04:24:08;20.30;99.90
1994;DHT22;998;49.906;10.908;2022-08-01T04:26:38;20.20;99.90
1994;DHT22;998;49.906;10.908;2022-08-01T04:29:08;20.20;99.90
1994;DHT22;998;49.906;10.908;2022-08-01T04:31:36;20.30;99.90
1994;DHT22;998;49.906;10.908;2022-08-01T04:34:05;20.30;99.90
1994;DHT22;998;49.906;10.908;2022-08-01T04:36:35;20.30;99.90
1994;DHT22;998;49.906;10.908;2022-08-01T04:39:04;20.10;99.90
1994;DHT22;998;49.906;10.908;2022-08-01T04:41:32;19.90;99.90
1994;DHT22;998;49.906;10.908;2022-08-01T04:44:00;19.80;99.90
1994;DHT22;998;49.906;10.908;2022-08-01T04:46:29;20.00;99.90
1994;DHT22;998;49.906;10.908;2022-08-01T04:48:58;20.20;99.90
1994;DHT22;998;49.906;10.908;2022-08-01T04:51:26;20.50;99.90
1994;DHT22;998;49.906;10.908;2022-08-01T04:53:53;20.50;99.90
1994;DHT22;998;49.906;10.908;2022-08-01T04:56:20;20.60;99.90
1994;DHT22;998;49.906;10.908;2022-08-01T04:58:47;20.60;99.90
1994;DHT22;998;49.906;10.908;2022-08-01T05:01:35;20.70;99.90
1994;DHT22;998;49.906;10.908;2022-08-01T05:04:02;20.80;99.90
1994;DHT22;998;49.906;10.908;2022-08-01T05:06:29;20.60;99.90
1994;DHT22;998;49.906;10.908;2022-08-01T05:08:56;20.70;99.90
1994;DHT22;998;49.906;10.908;2022-08-01T05:11:23;20.70;99.90
1994;DHT22;998;49.906;10.908;2022-08-01T05:13:50;20.80;99.90
1994;DHT22;998;49.906;10.908;2022-08-01T05:16:16;20.90;99.90
1994;DHT22;998;49.906;10.908;2022-08-01T05:18:45;20.80;99.90
1994;DHT22;998;49.906;10.908;2022-08-01T05:21:11;20.80;99.90
1994;DHT22;998;49.906;10.908;2022-08-01T05:23:38;20.60;99.90
1994;DHT22;998;49.906;10.908;2022-08-01T05:26:05;20.40;99.90
1994;DHT22;998;49.906;10.908;2022-08-01T05:28:32;20.30;99.90
1994;DHT22;998;49.906;10.908;2022-08-01T05:30:59;20.30;99.90
1994;DHT22;998;49.906;10.908;2022-08-01T05:33:26;20.20;99.90
1994;DHT22;998;49.906;10.908;2022-08-01T05:35:54;20.20;99.90
1994;DHT22;998;49.906;10.908;2022-08-01T05:38:21;20.20;99.90
1994;DHT22;998;49.906;10.908;2022-08-01T05:40:48;20.00;99.90
1994;DHT22;998;49.906;10.908;2022-08-01T05:43:15;20.00;99.90
1994;DHT22;998;49.906;10.908;2022-08-01T05:45:42;20.10;99.90
1994;DHT22;998;49.906;10.908;2022-08-01T05:48:10;20.20;99.90
1994;DHT22;998;49.906;10.908;2022-08-01T05:50:36;20.30;99.90
1994;DHT22;998;49.906;10.908;2022-08-01T05:53:05;20.10;99.90
1994;DHT22;998;49.906;10.908;2022-08-01T05:55:31;20.10;99.90
1994;DHT22;998;49.906;10.908;2022-08-01T05:57:58;20.10;99.90
1994;DHT22;998;49.906;10.908;2022-08-01T06:00:25;20.10;99.90
1994;DHT22;998;49.906;10.908;2022-08-01T06:02:52;20.30;99.90
1994;DHT22;998;49.906;10.908;2022-08-01T06:05:19;20.40;99.90
1994;DHT22;998;49.906;10.908;2022-08-01T06:07:46;20.50;99.90
1994;DHT22;998;49.906;10.908;2022-08-01T06:10:14;20.70;99.90
1994;DHT22;998;49.906;10.908;2022-08-01T06:12:41;20.80;99.90
1994;DHT22;998;49.906;10.908;2022-08-01T06:15:08;20.70;99.90
1994;DHT22;998;49.906;10.908;2022-08-01T06:17:35;20.60;99.90
1994;DHT22;998;49.906;10.908;2022-08-01T06:20:03;20.40;99.90
1994;DHT22;998;49.906;10.908;2022-08-01T06:22:31;20.40;99.90
1994;DHT22;998;49.906;10.908;2022-08-01T06:24:58;20.60;99.90
1994;DHT22;998;49.906;10.908;2022-08-01T06:27:26;20.70;99.90
1994;DHT22;998;49.906;10.908;2022-08-01T06:29:53;20.70;99.90
1994;DHT22;998;49.906;10.908;2022-08-01T06:32:20;20.90;99.90
1994;DHT22;998;49.906;10.908;2022-08-01T06:34:48;21.00;99.90
1994;DHT22;998;49.906;10.908;2022-08-01T06:37:15;20.90;99.90
1994;DHT22;998;49.906;10.908;2022-08-01T06:39:41;21.00;99.90
1994;DHT22;998;49.906;10.908;2022-08-01T06:42:08;21.00;99.90
1994;DHT22;998;49.906;10.908;2022-08-01T06:44:37;21.00;99.90
1994;DHT22;998;49.906;10.908;2022-08-01T06:47:03;21.10;99.90
1994;DHT22;998;49.906;10.908;2022-08-01T06:49:30;21.30;99.90
1994;DHT22;998;49.906;10.908;2022-08-01T06:51:57;21.30;99.90
1994;DHT22;998;49.906;10.908;2022-08-01T06:54:24;21.40;99.90
1994;DHT22;998;49.906;10.908;2022-08-01T06:56:51;21.40;99.90
1994;DHT22;998;49.906;10.908;2022-08-01T06:59:18;21.40;99.90
1994;DHT22;998;49.906;10.908;2022-08-01T07:01:46;21.40;99.90
1994;DHT22;998;49.906;10.908;2022-08-01T07:04:13;21.50;99.90
1994;DHT22;998;49.906;10.908;2022-08-01T07:06:40;21.40;99.90
1994;DHT22;998;49.906;10.908;2022-08-01T07:09:07;21.30;99.90
1994;DHT22;998;49.906;10.908;2022-08-01T07:11:33;21.30;99.90
1994;DHT22;998;49.906;10.908;2022-08-01T07:14:00;21.40;99.90
1994;DHT22;998;49.906;10.908;2022-08-01T07:16:28;21.40;99.90
1994;DHT22;998;49.906;10.908;2022-08-01T07:18:56;21.50;99.90
1994;DHT22;998;49.906;10.908;2022-08-01T07:21:23;21.50;99.90
1994;DHT22;998;49.906;10.908;2022-08-01T07:23:50;21.50;99.90
1994;DHT22;998;49.906;10.908;2022-08-01T07:26:17;21.60;99.90
1994;DHT22;998;49.906;10.908;2022-08-01T07:28:44;21.60;99.90
1994;DHT22;998;49.906;10.908;2022-08-01T07:31:11;21.70;99.90
1994;DHT22;998;49.906;10.908;2022-08-01T07:33:38;21.70;99.90
1994;DHT22;998;49.906;10.908;2022-08-01T07:36:06;21.70;99.90
1994;DHT22;998;49.906;10.908;2022-08-01T07:38:33;21.70;99.90
1994;DHT22;998;49.906;10.908;2022-08-01T07:40:59;21.80;99.90
1994;DHT22;998;49.906;10.908;2022-08-01T07:43:26;21.90;99.90
1994;DHT22;998;49.906;10.908;2022-08-01T07:45:53;21.90;99.90
1994;DHT22;998;49.906;10.908;2022-08-01T07:48:20;21.90;99.90
1994;DHT22;998;49.906;10.908;2022-08-01T07:50:49;22.00;99.90
1994;DHT22;998;49.906;10.908;2022-08-01T07:53:17;22.00;99.90
1994;DHT22;998;49.906;10.908;2022-08-01T07:55:44;22.10;99.90
1994;DHT22;998;49.906;10.908;2022-08-01T07:58:11;22.30;99.90
1994;DHT22;998;49.906;10.908;2022-08-01T08:00:38;22.20;99.90
1994;DHT22;998;49.906;10.908;2022-08-01T08:03:05;22.30;99.90
1994;DHT22;998;49.906;10.908;2022-08-01T08:05:32;22.40;99.90
1994;DHT22;998;49.906;10.908;2022-08-01T08:08:00;22.30;99.90
1994;DHT22;998;49.906;10.908;2022-08-01T08:10:28;22.40;99.90
1994;DHT22;998;49.906;10.908;2022-08-01T08:12:55;22.40;99.90
1994;DHT22;998;49.906;10.908;2022-08-01T08:15:22;22.40;99.90
1994;DHT22;998;49.906;10.908;2022-08-01T08:17:49;22.40;99.90
1994;DHT22;998;49.906;10.908;2022-08-01T08:20:16;22.50;99.90
1994;DHT22;998;49.906;10.908;2022-08-01T08:22:43;22.50;99.90
1994;DHT22;998;49.906;10.908;2022-08-01T08:25:09;22.50;99.90
1994;DHT22;998;49.906;10.908;2022-08-01T08:27:38;22.50;99.90
1994;DHT22;998;49.906;10.908;2022-08-01T08:30:06;22.60;99.90
1994;DHT22;998;49.906;10.908;2022-08-01T08:32:33;22.60;99.90
1994;DHT22;998;49.906;10.908;2022-08-01T08:35:00;22.60;99.90
1994;DHT22;998;49.906;10.908;2022-08-01T08:37:27;22.70;99.90
1994;DHT22;998;49.906;10.908;2022-08-01T08:39:54;22.70;99.90
1994;DHT22;998;49.906;10.908;2022-08-01T08:42:21;22.70;99.90
1994;DHT22;998;49.906;10.908;2022-08-01T08:44:50;22.80;99.90
1994;DHT22;998;49.906;10.908;2022-08-01T08:47:17;22.80;99.90
1994;DHT22;998;49.906;10.908;2022-08-01T08:49:45;22.90;99.90
1994;DHT22;998;49.906;10.908;2022-08-01T08:52:12;22.90;99.90
1994;DHT22;998;49.906;10.908;2022-08-01T08:54:41;22.90;99.90
1994;DHT22;998;49.906;10.908;2022-08-01T08:57:08;23.00;99.90
1994;DHT22;998;49.906;10.908;2022-08-01T08:59:37;23.00;99.90
1994;DHT22;998;49.906;10.908;2022-08-01T09:02:07;23.10;99.90
1994;DHT22;998;49.906;10.908;2022-08-01T09:04:35;23.00;99.90
1994;DHT22;998;49.906;10.908;2022-08-01T09:07:04;23.10;99.90
1994;DHT22;998;49.906;10.908;2022-08-01T09:09:32;23.10;99.90
1994;DHT22;998;49.906;10.908;2022-08-01T09:11:59;23.20;99.90
1994;DHT22;998;49.906;10.908;2022-08-01T09:14:26;23.20;99.90
1994;DHT22;998;49.906;10.908;2022-08-01T09:17:00;23.30;99.90
1994;DHT22;998;49.906;10.908;2022-08-01T09:19:37;23.30;99.90
1994;DHT22;998;49.906;10.908;2022-08-01T09:22:06;23.30;99.90
1994;DHT22;998;49.906;10.908;2022-08-01T09:24:34;23.20;99.90
1994;DHT22;998;49.906;10.908;2022-08-01T09:27:01;23.30;99.90
1994;DHT22;998;49.906;10.908;2022-08-01T09:29:42;23.40;99.90
1994;DHT22;998;49.906;10.908;2022-08-01T09:32:10;23.40;99.90
1994;DHT22;998;49.906;10.908;2022-08-01T09:34:38;23.40;99.90
1994;DHT22;998;49.906;10.908;2022-08-01T09:37:05;23.40;99.90
1994;DHT22;998;49.906;10.908;2022-08-01T09:39:33;23.40;99.90
1994;DHT22;998;49.906;10.908;2022-08-01T09:42:18;23.30;99.90
1994;DHT22;998;49.906;10.908;2022-08-01T09:44:45;23.30;99.90
1994;DHT22;998;49.906;10.908;2022-08-01T09:47:13;23.30;99.90
1994;DHT22;998;49.906;10.908;2022-08-01T09:49:42;23.20;99.90
1994;DHT22;998;49.906;10.908;2022-08-01T09:52:11;23.20;99.90
1994;DHT22;998;49.906;10.908;2022-08-01T09:54:39;23.20;99.90
1994;DHT22;998;49.906;10.908;2022-08-01T09:57:10;23.10;99.90
1994;DHT22;998;49.906;10.908;2022-08-01T09:59:38;23.10;99.90
1994;DHT22;998;49.906;10.908;2022-08-01T10:02:08;22.90;99.90
1994;DHT22;998;49.906;10.908;2022-08-01T10:04:36;22.90;99.90
1994;DHT22;998;49.906;10.908;2022-08-01T10:07:06;23.00;99.90
1994;DHT22;998;49.906;10.908;2022-08-01T10:09:35;23.10;99.90
1994;DHT22;998;49.906;10.908;2022-08-01T10:12:02;23.10;99.90
1994;DHT22;998;49.906;10.908;2022-08-01T10:14:30;23.20;99.90
1994;DHT22;998;49.906;10.908;2022-08-01T10:16:58;23.30;99.90
1994;DHT22;998;49.906;10.908;2022-08-01T10:19:27;23.40;99.90
1994;DHT22;998;49.906;10.908;2022-08-01T10:21:55;23.40;99.90
1994;DHT22;998;49.906;10.908;2022-08-01T10:24:25;23.50;99.90
1994;DHT22;998;49.906;10.908;2022-08-01T10:26:56;23.50;99.90
1994;DHT22;998;49.906;10.908;2022-08-01T10:29:25;23.50;99.90
1994;DHT22;998;49.906;10.908;2022-08-01T10:31:53;23.40;99.90
1994;DHT22;998;49.906;10.908;2022-08-01T10:34:20;23.40;99.90
1994;DHT22;998;49.906;10.908;2022-08-01T10:36:48;23.40;99.90
1994;DHT22;998;49.906;10.908;2022-08-01T10:39:15;23.40;99.90
1994;DHT22;998;49.906;10.908;2022-08-01T10:41:45;23.50;99.90
1994;DHT22;998;49.906;10.908;2022-08-01T10:44:12;23.50;99.90
1994;DHT22;998;49.906;10.908;2022-08-01T10:46:44;23.50;99.90
1994;DHT22;998;49.906;10.908;2022-08-01T10:49:17;23.60;99.90
1994;DHT22;998;49.906;10.908;2022-08-01T10:51:45;23.70;99.90
1994;DHT22;998;49.906;10.908;2022-08-01T10:54:12;23.80;99.90
1994;DHT22;998;49.906;10.908;2022-08-01T10:56:47;24.00;99.90
1994;DHT22;998;49.906;10.908;2022-08-01T10:59:15;24.00;99.90
1994;DHT22;998;49.906;10.908;2022-08-01T11:01:56;24.00;99.90
1994;DHT22;998;49.906;10.908;2022-08-01T11:04:34;24.00;99.90
1994;DHT22;998;49.906;10.908;2022-08-01T11:07:04;24.10;99.90
1994;DHT22;998;49.906;10.908;2022-08-01T11:09:39;24.20;99.90
1994;DHT22;998;49.906;10.908;2022-08-01T11:12:10;24.20;99.90
1994;DHT22;998;49.906;10.908;2022-08-01T11:17:44;24.10;99.90
1994;DHT22;998;49.906;10.908;2022-08-01T11:20:15;24.10;99.90
1994;DHT22;998;49.906;10.908;2022-08-01T11:26:16;24.20;99.90
1994;DHT22;998;49.906;10.908;2022-08-01T11:31:36;24.30;99.90
1994;DHT22;998;49.906;10.908;2022-08-01T11:34:03;24.50;99.90
1994;DHT22;998;49.906;10.908;2022-08-01T11:36:30;24.50;99.90
1994;DHT22;998;49.906;10.908;2022-08-01T11:39:17;24.60;99.90
1994;DHT22;998;49.906;10.908;2022-08-01T11:41:46;24.90;99.90
1994;DHT22;998;49.906;10.908;2022-08-01T11:44:19;24.90;99.90
1994;DHT22;998;49.906;10.908;2022-08-01T11:46:59;25.10;99.90
1994;DHT22;998;49.906;10.908;2022-08-01T11:49:33;25.20;99.90
1994;DHT22;998;49.906;10.908;2022-08-01T11:52:04;25.30;99.90
1994;DHT22;998;49.906;10.908;2022-08-01T11:54:33;25.40;99.90
1994;DHT22;998;49.906;10.908;2022-08-01T11:57:02;25.50;99.90
1994;DHT22;998;49.906;10.908;2022-08-01T11:59:36;25.50;99.90
1994;DHT22;998;49.906;10.908;2022-08-01T12:02:04;25.40;99.90
1994;DHT22;998;49.906;10.908;2022-08-01T12:04:46;25.40;99.90
1994;DHT22;998;49.906;10.908;2022-08-01T12:07:13;25.40;99.90
1994;DHT22;998;49.906;10.908;2022-08-01T12:09:40;25.60;99.90
1994;DHT22;998;49.906;10.908;2022-08-01T12:12:09;25.90;99.90
1994;DHT22;998;49.906;10.908;2022-08-01T12:14:39;26.30;99.90
1994;DHT22;998;49.906;10.908;2022-08-01T12:17:06;26.50;99.90
1994;DHT22;998;49.906;10.908;2022-08-01T12:19:36;26.40;99.90
1994;DHT22;998;49.906;10.908;2022-08-01T12:22:05;26.20;99.90
1994;DHT22;998;49.906;10.908;2022-08-01T12:24:33;26.30;99.90
1994;DHT22;998;49.906;10.908;2022-08-01T12:27:00;26.50;99.90
1994;DHT22;998;49.906;10.908;2022-08-01T12:29:34;26.90;99.90
1994;DHT22;998;49.906;10.908;2022-08-01T12:34:45;27.00;99.90
1994;DHT22;998;49.906;10.908;2022-08-01T12:37:14;27.00;99.90
1994;DHT22;998;49.906;10.908;2022-08-01T12:39:41;26.90;99.90
1994;DHT22;998;49.906;10.908;2022-08-01T12:42:09;26.60;99.90
1994;DHT22;998;49.906;10.908;2022-08-01T12:47:33;26.30;99.90
1994;DHT22;998;49.906;10.908;2022-08-01T12:50:08;26.40;99.90
1994;DHT22;998;49.906;10.908;2022-08-01T12:52:58;26.40;99.90
1994;DHT22;998;49.906;10.908;2022-08-01T12:55:49;26.10;99.90
1994;DHT22;998;49.906;10.908;2022-08-01T12:59:01;25.80;99.90
1994;DHT22;998;49.906;10.908;2022-08-01T13:02:39;25.70;99.90
1994;DHT22;998;49.906;10.908;2022-08-01T13:05:13;25.50;99.90
1994;DHT22;998;49.906;10.908;2022-08-01T13:07:56;25.50;99.90
1994;DHT22;998;49.906;10.908;2022-08-01T13:10:34;25.40;99.90
1994;DHT22;998;49.906;10.908;2022-08-01T13:13:07;25.30;99.90
1994;DHT22;998;49.906;10.908;2022-08-01T13:16:06;25.40;99.90
1994;DHT22;998;49.906;10.908;2022-08-01T13:18:39;25.50;99.90
1994;DHT22;998;49.906;10.908;2022-08-01T13:21:16;26.50;99.90
1994;DHT22;998;49.906;10.908;2022-08-01T13:24:01;26.90;99.90
1994;DHT22;998;49.906;10.908;2022-08-01T13:29:52;27.10;99.90
1994;DHT22;998;49.906;10.908;2022-08-01T13:32:22;27.50;99.90
1994;DHT22;998;49.906;10.908;2022-08-01T13:35:03;28.00;99.90
1994;DHT22;998;49.906;10.908;2022-08-01T13:37:34;28.60;99.90
1994;DHT22;998;49.906;10.908;2022-08-01T13:43:46;29.30;99.90
1994;DHT22;998;49.906;10.908;2022-08-01T13:46:19;29.20;99.90
1994;DHT22;998;49.906;10.908;2022-08-01T13:48:46;29.30;99.90
1994;DHT22;998;49.906;10.908;2022-08-01T13:51:17;29.00;99.90
1994;DHT22;998;49.906;10.908;2022-08-01T13:53:43;28.90;99.90
1994;DHT22;998;49.906;10.908;2022-08-01T13:56:10;28.80;99.90
1994;DHT22;998;49.906;10.908;2022-08-01T13:58:40;28.80;99.90
1994;DHT22;998;49.906;10.908;2022-08-01T14:01:07;28.50;99.90
1994;DHT22;998;49.906;10.908;2022-08-01T14:03:34;28.10;99.90
1994;DHT22;998;49.906;10.908;2022-08-01T14:06:01;28.10;99.90
1994;DHT22;998;49.906;10.908;2022-08-01T14:08:29;28.50;99.90
1994;DHT22;998;49.906;10.908;2022-08-01T14:10:56;28.90;99.90
1994;DHT22;998;49.906;10.908;2022-08-01T14:13:24;29.30;99.90
1994;DHT22;998;49.906;10.908;2022-08-01T14:15:51;29.60;99.90
1994;DHT22;998;49.906;10.908;2022-08-01T14:18:18;29.90;99.90
1994;DHT22;998;49.906;10.908;2022-08-01T14:20:45;30.20;99.90
1994;DHT22;998;49.906;10.908;2022-08-01T14:23:12;30.30;99.90
1994;DHT22;998;49.906;10.908;2022-08-01T14:25:43;29.90;99.90
1994;DHT22;998;49.906;10.908;2022-08-01T14:28:10;29.70;99.90
1994;DHT22;998;49.906;10.908;2022-08-01T14:30:37;29.50;99.90
1994;DHT22;998;49.906;10.908;2022-08-01T14:33:08;29.60;99.90
1994;DHT22;998;49.906;10.908;2022-08-01T14:35:35;29.80;99.90
1994;DHT22;998;49.906;10.908;2022-08-01T14:38:22;29.90;99.90
1994;DHT22;998;49.906;10.908;2022-08-01T14:55:03;27.90;99.90
1994;DHT22;998;49.906;10.908;2022-08-01T14:58:30;27.80;99.90
1994;DHT22;998;49.906;10.908;2022-08-01T15:02:05;27.70;99.90
1994;DHT22;998;49.906;10.908;2022-08-01T15:05:02;28.30;99.90
1994;DHT22;998;49.906;10.908;2022-08-01T15:08:07;28.70;99.90
1994;DHT22;998;49.906;10.908;2022-08-01T15:10:54;29.00;99.90
1994;DHT22;998;49.906;10.908;2022-08-01T15:13:32;29.00;99.90
1994;DHT22;998;49.906;10.908;2022-08-01T15:16:18;28.90;99.80
1994;DHT22;998;49.906;10.908;2022-08-01T15:19:11;29.00;99.90
1994;DHT22;998;49.906;10.908;2022-08-01T15:21:48;29.00;99.90
1994;DHT22;998;49.906;10.908;2022-08-01T15:24:48;28.90;99.90
1994;DHT22;998;49.906;10.908;2022-08-01T15:27:37;28.80;99.90
1994;DHT22;998;49.906;10.908;2022-08-01T15:30:23;28.50;99.90
1994;DHT22;998;49.906;10.908;2022-08-01T15:33:10;28.20;99.90
1994;DHT22;998;49.906;10.908;2022-08-01T15:36:19;28.10;99.90
1994;DHT22;998;49.906;10.908;2022-08-01T15:38:50;27.90;99.90
1994;DHT22;998;49.906;10.908;2022-08-01T15:44:33;27.80;99.90
1994;DHT22;998;49.906;10.908;2022-08-01T15:47:15;27.60;99.90
1994;DHT22;998;49.906;10.908;2022-08-01T15:50:14;27.50;99.90
1994;DHT22;998;49.906;10.908;2022-08-01T15:52:51;27.40;99.90
1994;DHT22;998;49.906;10.908;2022-08-01T15:55:38;27.50;99.90
1994;DHT22;998;49.906;10.908;2022-08-01T15:58:13;27.30;99.90
1994;DHT22;998;49.906;10.908;2022-08-01T16:00:59;27.30;99.90
1994;DHT22;998;49.906;10.908;2022-08-01T16:03:46;27.10;99.90
1994;DHT22;998;49.906;10.908;2022-08-01T16:09:06;27.10;99.90
1994;DHT22;998;49.906;10.908;2022-08-01T16:22:04;27.10;99.90
1994;DHT22;998;49.906;10.908;2022-08-01T16:55:34;27.20;99.90
1994;DHT22;998;49.906;10.908;2022-08-01T16:58:01;27.20;99.90
1994;DHT22;998;49.906;10.908;2022-08-01T17:00:28;27.20;99.90
1994;DHT22;998;49.906;10.908;2022-08-01T17:02:55;27.20;99.90
1994;DHT22;998;49.906;10.908;2022-08-01T17:05:22;27.10;99.90
1994;DHT22;998;49.906;10.908;2022-08-01T17:07:49;27.10;99.90
1994;DHT22;998;49.906;10.908;2022-08-01T17:10:16;27.00;99.90
1994;DHT22;998;49.906;10.908;2022-08-01T17:12:44;27.00;99.90
1994;DHT22;998;49.906;10.908;2022-08-01T17:15:11;26.90;99.90
1994;DHT22;998;49.906;10.908;2022-08-01T17:17:38;26.90;99.90
1994;DHT22;998;49.906;10.908;2022-08-01T17:20:06;26.80;99.90
1994;DHT22;998;49.906;10.908;2022-08-01T17:22:33;26.80;99.90
1994;DHT22;998;49.906;10.908;2022-08-01T17:25:00;26.70;99.90
1994;DHT22;998;49.906;10.908;2022-08-01T17:27:27;26.70;99.90
1994;DHT22;998;49.906;10.908;2022-08-01T17:29:55;26.60;99.90
1994;DHT22;998;49.906;10.908;2022-08-01T17:32:22;26.60;99.90
1994;DHT22;998;49.906;10.908;2022-08-01T17:34:49;26.60;99.90
1994;DHT22;998;49.906;10.908;2022-08-01T17:37:16;26.60;99.90
1994;DHT22;998;49.906;10.908;2022-08-01T17:39:42;26.60;99.90
1994;DHT22;998;49.906;10.908;2022-08-01T17:42:09;26.60;99.90
1994;DHT22;998;49.906;10.908;2022-08-01T17:44:37;26.60;99.90
1994;DHT22;998;49.906;10.908;2022-08-01T17:47:05;26.60;99.90
1994;DHT22;998;49.906;10.908;2022-08-01T17:49:32;26.60;99.90